VJC343 VVDN-VVTS
Flight info
| Callsign | VJC343 |
|---|---|
| Flight time | N/A |
| Altitude | 34000 |
| Route | SADIN1G SADIN Q1 DOVIN DOVIN5D |
| Aircraft | A21N/M-SDE3FGHIRWY/LB1 |
Departure
| Time | 2026-04-29 18:10 |
|---|---|
| Airport | Da Nang International Airport (VVDN) |
Arrival
| Time | N/A |
|---|---|
| Airport | Tan Son Nhat International Airport (VVTS) |
| Time | Latitude | Longitude | Altitude | Speed | Heading |
|---|---|---|---|---|---|
| 2026-04-29 17:58 | 16.05409 | 108.20162 | 47 ft | 0 kts | 82° |
| 2026-04-29 17:59 | 16.05407 | 108.20149 | 47 ft | 2 kts | 82° |
| 2026-04-29 18:00 | 16.05405 | 108.20134 | 47 ft | 2 kts | 82° |
| 2026-04-29 18:00 | 16.05404 | 108.20118 | 47 ft | 2 kts | 103° |
| 2026-04-29 18:00 | 16.05410 | 108.20104 | 47 ft | 2 kts | 120° |
| 2026-04-29 18:00 | 16.05419 | 108.20091 | 47 ft | 2 kts | 140° |
| 2026-04-29 18:01 | 16.05432 | 108.20083 | 46 ft | 2 kts | 159° |
| 2026-04-29 18:01 | 16.05441 | 108.20080 | 46 ft | 0 kts | 171° |
| 2026-04-29 18:01 | 16.05448 | 108.20079 | 46 ft | 0 kts | 173° |
| 2026-04-29 18:03 | 16.05447 | 108.20079 | 46 ft | 0 kts | 173° |
| 2026-04-29 18:04 | 16.05428 | 108.20084 | 46 ft | 5 kts | 167° |
| 2026-04-29 18:04 | 16.05369 | 108.20094 | 48 ft | 11 kts | 172° |
| 2026-04-29 18:04 | 16.05273 | 108.20108 | 48 ft | 16 kts | 172° |
| 2026-04-29 18:04 | 16.05140 | 108.20126 | 48 ft | 20 kts | 172° |
| 2026-04-29 18:05 | 16.05004 | 108.20146 | 48 ft | 19 kts | 171° |
| 2026-04-29 18:05 | 16.04939 | 108.20133 | 49 ft | 7 kts | 242° |
| 2026-04-29 18:05 | 16.04903 | 108.20105 | 50 ft | 6 kts | 179° |
| 2026-04-29 18:05 | 16.04858 | 108.20111 | 51 ft | 6 kts | 172° |
| 2026-04-29 18:06 | 16.04802 | 108.20118 | 52 ft | 10 kts | 172° |
| 2026-04-29 18:06 | 16.04712 | 108.20132 | 52 ft | 16 kts | 173° |
| 2026-04-29 18:06 | 16.04576 | 108.20150 | 52 ft | 22 kts | 172° |
| 2026-04-29 18:06 | 16.04403 | 108.20177 | 52 ft | 27 kts | 172° |
| 2026-04-29 18:07 | 16.04197 | 108.20207 | 52 ft | 31 kts | 171° |
| 2026-04-29 18:07 | 16.03971 | 108.20241 | 54 ft | 34 kts | 171° |
| 2026-04-29 18:07 | 16.03744 | 108.20273 | 53 ft | 31 kts | 172° |
| 2026-04-29 18:07 | 16.03528 | 108.20304 | 52 ft | 29 kts | 172° |
| 2026-04-29 18:08 | 16.03329 | 108.20334 | 52 ft | 27 kts | 171° |
| 2026-04-29 18:08 | 16.03147 | 108.20362 | 55 ft | 24 kts | 172° |
| 2026-04-29 18:08 | 16.02981 | 108.20372 | 55 ft | 23 kts | 199° |
| 2026-04-29 18:08 | 16.02931 | 108.20259 | 56 ft | 16 kts | 314° |
| 2026-04-29 18:09 | 16.03027 | 108.20237 | 56 ft | 16 kts | 352° |
| 2026-04-29 18:09 | 16.03386 | 108.20185 | 53 ft | 90 kts | 352° |
| 2026-04-29 18:09 | 16.04240 | 108.20061 | 53 ft | 155 kts | 352° |
| 2026-04-29 18:09 | 16.05407 | 108.19895 | 464 ft | 172 kts | 352° |
| 2026-04-29 18:10 | 16.06574 | 108.19787 | 1174 ft | 173 kts | 0° |
| 2026-04-29 18:10 | 16.07764 | 108.19813 | 1909 ft | 170 kts | 357° |
| 2026-04-29 18:10 | 16.08969 | 108.19769 | 2254 ft | 178 kts | 356° |
| 2026-04-29 18:10 | 16.10272 | 108.19712 | 2498 ft | 194 kts | 357° |
| 2026-04-29 18:11 | 16.11675 | 108.19656 | 2782 ft | 208 kts | 357° |